sensor_id;sensor_type;location;lat;lon;timestamp;pressure;altitude;pressure_sealevel;temperature;humidity
62946;BME280;52164;52.212;-1.010;2022-07-29T00:00:42;100945.71;;;17.12;54.06
62946;BME280;52164;52.212;-1.010;2022-07-29T00:03:11;100944.86;;;17.09;53.95
62946;BME280;52164;52.212;-1.010;2022-07-29T00:05:38;100944.55;;;17.06;54.19
62946;BME280;52164;52.212;-1.010;2022-07-29T00:08:04;100943.89;;;17.03;54.58
62946;BME280;52164;52.212;-1.010;2022-07-29T00:10:30;100942.86;;;17.01;54.54
62946;BME280;52164;52.212;-1.010;2022-07-29T00:12:56;100944.17;;;16.98;54.40
62946;BME280;52164;52.212;-1.010;2022-07-29T00:15:21;100940.96;;;16.96;54.63
62946;BME280;52164;52.212;-1.010;2022-07-29T00:17:47;100940.29;;;16.95;54.61
62946;BME280;52164;52.212;-1.010;2022-07-29T00:20:12;100934.93;;;16.91;54.83
62946;BME280;52164;52.212;-1.010;2022-07-29T00:22:38;100938.56;;;16.90;54.96
62946;BME280;52164;52.212;-1.010;2022-07-29T00:25:05;100935.15;;;16.90;54.86
62946;BME280;52164;52.212;-1.010;2022-07-29T00:27:30;100936.08;;;16.88;55.11
62946;BME280;52164;52.212;-1.010;2022-07-29T00:29:56;100933.22;;;16.86;55.23
62946;BME280;52164;52.212;-1.010;2022-07-29T00:32:21;100932.89;;;16.84;55.51
62946;BME280;52164;52.212;-1.010;2022-07-29T00:34:46;100937.25;;;16.82;55.65
62946;BME280;52164;52.212;-1.010;2022-07-29T00:37:32;100934.40;;;16.80;55.92
62946;BME280;52164;52.212;-1.010;2022-07-29T00:39:58;100931.35;;;16.79;55.99
62946;BME280;52164;52.212;-1.010;2022-07-29T00:42:23;100930.14;;;16.76;55.90
62946;BME280;52164;52.212;-1.010;2022-07-29T00:44:49;100930.55;;;16.73;56.24
62946;BME280;52164;52.212;-1.010;2022-07-29T00:47:14;100930.80;;;16.69;56.52
62946;BME280;52164;52.212;-1.010;2022-07-29T00:49:41;100933.18;;;16.68;56.66
62946;BME280;52164;52.212;-1.010;2022-07-29T00:52:08;100931.06;;;16.66;56.84
62946;BME280;52164;52.212;-1.010;2022-07-29T00:54:34;100934.52;;;16.63;56.93
62946;BME280;52164;52.212;-1.010;2022-07-29T00:57:00;100933.68;;;16.60;57.03
62946;BME280;52164;52.212;-1.010;2022-07-29T00:59:27;100935.70;;;16.58;57.33
62946;BME280;52164;52.212;-1.010;2022-07-29T01:01:53;100933.73;;;16.58;57.24
62946;BME280;52164;52.212;-1.010;2022-07-29T01:04:21;100933.44;;;16.54;57.73
62946;BME280;52164;52.212;-1.010;2022-07-29T01:06:47;100932.40;;;16.51;57.70
62946;BME280;52164;52.212;-1.010;2022-07-29T01:09:15;100933.33;;;16.50;57.90
62946;BME280;52164;52.212;-1.010;2022-07-29T01:11:42;100933.36;;;16.47;58.03
62946;BME280;52164;52.212;-1.010;2022-07-29T01:14:09;100934.48;;;16.45;58.13
62946;BME280;52164;52.212;-1.010;2022-07-29T01:16:48;100929.69;;;16.42;58.26
62946;BME280;52164;52.212;-1.010;2022-07-29T01:21:50;100929.39;;;16.38;58.56
62946;BME280;52164;52.212;-1.010;2022-07-29T01:22:35;100926.91;;;16.35;58.72
62946;BME280;52164;52.212;-1.010;2022-07-29T01:27:44;100925.02;;;16.29;59.22
62946;BME280;52164;52.212;-1.010;2022-07-29T01:30:13;100926.86;;;16.28;59.34
62946;BME280;52164;52.212;-1.010;2022-07-29T01:32:39;100926.70;;;16.26;59.43
62946;BME280;52164;52.212;-1.010;2022-07-29T01:35:08;100923.12;;;16.25;59.51
62946;BME280;52164;52.212;-1.010;2022-07-29T01:40:04;100929.31;;;16.20;59.85
62946;BME280;52164;52.212;-1.010;2022-07-29T01:45:02;100926.39;;;16.23;60.30
62946;BME280;52164;52.212;-1.010;2022-07-29T01:47:34;100932.66;;;16.26;60.36
62946;BME280;52164;52.212;-1.010;2022-07-29T01:50:07;100930.45;;;16.28;60.60
62946;BME280;52164;52.212;-1.010;2022-07-29T01:52:37;100930.57;;;16.32;60.57
62946;BME280;52164;52.212;-1.010;2022-07-29T01:55:11;100928.88;;;16.36;60.56
62946;BME280;52164;52.212;-1.010;2022-07-29T01:57:40;100932.95;;;16.40;60.41
62946;BME280;52164;52.212;-1.010;2022-07-29T02:00:08;100929.31;;;16.43;60.36
62946;BME280;52164;52.212;-1.010;2022-07-29T02:02:35;100937.02;;;16.45;60.27
62946;BME280;52164;52.212;-1.010;2022-07-29T02:05:04;100932.48;;;16.47;60.15
62946;BME280;52164;52.212;-1.010;2022-07-29T02:07:32;100933.91;;;16.47;60.08
62946;BME280;52164;52.212;-1.010;2022-07-29T02:10:00;100931.73;;;16.48;60.14
62946;BME280;52164;52.212;-1.010;2022-07-29T02:12:28;100932.80;;;16.48;60.13
62946;BME280;52164;52.212;-1.010;2022-07-29T02:14:56;100935.88;;;16.48;60.20
62946;BME280;52164;52.212;-1.010;2022-07-29T02:17:32;100934.62;;;16.47;60.17
62946;BME280;52164;52.212;-1.010;2022-07-29T02:20:00;100936.63;;;16.46;60.32
62946;BME280;52164;52.212;-1.010;2022-07-29T02:22:29;100939.88;;;16.46;60.06
62946;BME280;52164;52.212;-1.010;2022-07-29T02:24:58;100939.71;;;16.45;60.24
62946;BME280;52164;52.212;-1.010;2022-07-29T02:27:25;100935.42;;;16.44;60.49
62946;BME280;52164;52.212;-1.010;2022-07-29T02:29:53;100932.92;;;16.42;60.57
62946;BME280;52164;52.212;-1.010;2022-07-29T02:32:21;100930.08;;;16.40;60.46
62946;BME280;52164;52.212;-1.010;2022-07-29T02:34:48;100928.67;;;16.37;60.50
62946;BME280;52164;52.212;-1.010;2022-07-29T02:37:16;100926.17;;;16.35;60.50
62946;BME280;52164;52.212;-1.010;2022-07-29T02:39:44;100931.06;;;16.34;60.58
62946;BME280;52164;52.212;-1.010;2022-07-29T02:42:13;100934.33;;;16.34;60.77
62946;BME280;52164;52.212;-1.010;2022-07-29T02:44:40;100930.03;;;16.32;60.87
62946;BME280;52164;52.212;-1.010;2022-07-29T02:47:13;100928.96;;;16.31;60.79
62946;BME280;52164;52.212;-1.010;2022-07-29T02:49:53;100922.50;;;16.30;60.90
62946;BME280;52164;52.212;-1.010;2022-07-29T02:55:19;100921.81;;;16.29;61.15
62946;BME280;52164;52.212;-1.010;2022-07-29T02:57:53;100920.03;;;16.27;61.31
62946;BME280;52164;52.212;-1.010;2022-07-29T03:00:21;100918.58;;;16.28;61.36
62946;BME280;52164;52.212;-1.010;2022-07-29T03:02:52;100919.82;;;16.29;61.41
62946;BME280;52164;52.212;-1.010;2022-07-29T03:05:19;100918.93;;;16.28;61.44
62946;BME280;52164;52.212;-1.010;2022-07-29T03:07:50;100921.86;;;16.26;61.55
62946;BME280;52164;52.212;-1.010;2022-07-29T03:10:17;100920.11;;;16.23;61.59
62946;BME280;52164;52.212;-1.010;2022-07-29T03:12:43;100918.33;;;16.22;61.80
62946;BME280;52164;52.212;-1.010;2022-07-29T03:15:09;100919.23;;;16.21;61.82
62946;BME280;52164;52.212;-1.010;2022-07-29T03:17:36;100919.07;;;16.20;61.99
62946;BME280;52164;52.212;-1.010;2022-07-29T03:20:03;100918.72;;;16.20;62.08
62946;BME280;52164;52.212;-1.010;2022-07-29T03:22:29;100920.36;;;16.18;62.19
62946;BME280;52164;52.212;-1.010;2022-07-29T03:24:55;100917.85;;;16.17;62.27
62946;BME280;52164;52.212;-1.010;2022-07-29T03:27:21;100921.32;;;16.15;62.36
62946;BME280;52164;52.212;-1.010;2022-07-29T03:29:47;100924.59;;;16.13;62.48
62946;BME280;52164;52.212;-1.010;2022-07-29T03:32:12;100923.02;;;16.10;62.63
62946;BME280;52164;52.212;-1.010;2022-07-29T03:34:38;100924.30;;;16.08;62.61
62946;BME280;52164;52.212;-1.010;2022-07-29T03:37:04;100921.63;;;16.06;62.80
62946;BME280;52164;52.212;-1.010;2022-07-29T03:39:34;100928.50;;;16.04;62.91
62946;BME280;52164;52.212;-1.010;2022-07-29T03:42:00;100931.95;;;16.02;62.97
62946;BME280;52164;52.212;-1.010;2022-07-29T03:44:27;100936.69;;;16.00;63.09
62946;BME280;52164;52.212;-1.010;2022-07-29T03:46:55;100941.37;;;15.98;63.08
62946;BME280;52164;52.212;-1.010;2022-07-29T03:49:24;100943.73;;;15.98;63.33
62946;BME280;52164;52.212;-1.010;2022-07-29T03:51:51;100947.33;;;15.98;63.41
62946;BME280;52164;52.212;-1.010;2022-07-29T03:54:17;100944.60;;;15.98;63.70
62946;BME280;52164;52.212;-1.010;2022-07-29T03:56:46;100944.06;;;15.99;63.75
62946;BME280;52164;52.212;-1.010;2022-07-29T03:59:15;100944.60;;;15.99;63.68
62946;BME280;52164;52.212;-1.010;2022-07-29T04:01:42;100935.08;;;15.98;63.44
62946;BME280;52164;52.212;-1.010;2022-07-29T04:04:08;100933.65;;;15.98;63.50
62946;BME280;52164;52.212;-1.010;2022-07-29T04:06:42;100936.70;;;15.98;63.50
62946;BME280;52164;52.212;-1.010;2022-07-29T04:09:08;100936.54;;;15.98;63.42
62946;BME280;52164;52.212;-1.010;2022-07-29T04:11:35;100941.77;;;15.97;63.62
62946;BME280;52164;52.212;-1.010;2022-07-29T04:14:01;100939.80;;;15.95;63.49
62946;BME280;52164;52.212;-1.010;2022-07-29T04:16:27;100943.81;;;15.92;63.53
62946;BME280;52164;52.212;-1.010;2022-07-29T04:18:52;100939.52;;;15.90;63.50
62946;BME280;52164;52.212;-1.010;2022-07-29T04:21:18;100939.61;;;15.85;63.47
62946;BME280;52164;52.212;-1.010;2022-07-29T04:23:43;100941.47;;;15.81;63.62
62946;BME280;52164;52.212;-1.010;2022-07-29T04:26:10;100940.77;;;15.77;63.78
62946;BME280;52164;52.212;-1.010;2022-07-29T04:28:36;100944.39;;;15.75;63.97
62946;BME280;52164;52.212;-1.010;2022-07-29T04:31:03;100944.42;;;15.73;64.01
62946;BME280;52164;52.212;-1.010;2022-07-29T04:33:28;100943.73;;;15.71;64.20
62946;BME280;52164;52.212;-1.010;2022-07-29T04:35:54;100940.66;;;15.72;64.22
62946;BME280;52164;52.212;-1.010;2022-07-29T04:38:19;100941.56;;;15.72;64.26
62946;BME280;52164;52.212;-1.010;2022-07-29T04:40:45;100938.70;;;15.71;64.28
62946;BME280;52164;52.212;-1.010;2022-07-29T04:43:10;100941.40;;;15.71;64.38
62946;BME280;52164;52.212;-1.010;2022-07-29T04:45:36;100942.29;;;15.72;64.52
62946;BME280;52164;52.212;-1.010;2022-07-29T04:48:01;100942.83;;;15.72;64.67
62946;BME280;52164;52.212;-1.010;2022-07-29T04:50:27;100944.44;;;15.72;64.56
62946;BME280;52164;52.212;-1.010;2022-07-29T04:52:52;100946.23;;;15.72;64.64
62946;BME280;52164;52.212;-1.010;2022-07-29T04:55:18;100945.54;;;15.71;64.73
62946;BME280;52164;52.212;-1.010;2022-07-29T04:57:44;100947.17;;;15.70;64.88
62946;BME280;52164;52.212;-1.010;2022-07-29T05:00:10;100948.97;;;15.70;64.96
62946;BME280;52164;52.212;-1.010;2022-07-29T05:02:35;100942.86;;;15.70;64.91
62946;BME280;52164;52.212;-1.010;2022-07-29T05:05:01;100945.00;;;15.71;64.79
62946;BME280;52164;52.212;-1.010;2022-07-29T05:07:27;100947.34;;;15.71;64.79
62946;BME280;52164;52.212;-1.010;2022-07-29T05:09:52;100948.05;;;15.71;65.03
62946;BME280;52164;52.212;-1.010;2022-07-29T05:12:18;100949.09;;;15.74;65.03
62946;BME280;52164;52.212;-1.010;2022-07-29T05:14:44;100950.13;;;15.77;65.11
62946;BME280;52164;52.212;-1.010;2022-07-29T05:17:09;100952.08;;;15.82;65.27
62946;BME280;52164;52.212;-1.010;2022-07-29T05:19:35;100953.06;;;15.88;65.42
62946;BME280;52164;52.212;-1.010;2022-07-29T05:22:00;100957.84;;;15.93;65.24
62946;BME280;52164;52.212;-1.010;2022-07-29T05:24:26;100961.02;;;15.96;65.11
62946;BME280;52164;52.212;-1.010;2022-07-29T05:26:52;100964.77;;;16.00;65.08
62946;BME280;52164;52.212;-1.010;2022-07-29T05:29:17;100963.45;;;16.02;64.80
62946;BME280;52164;52.212;-1.010;2022-07-29T05:31:43;100968.44;;;16.06;64.88
62946;BME280;52164;52.212;-1.010;2022-07-29T05:34:08;100965.54;;;16.08;64.77
62946;BME280;52164;52.212;-1.010;2022-07-29T05:36:34;100966.59;;;16.10;64.64
62946;BME280;52164;52.212;-1.010;2022-07-29T05:38:59;100968.90;;;16.12;64.60
62946;BME280;52164;52.212;-1.010;2022-07-29T05:41:24;100968.54;;;16.12;64.76
62946;BME280;52164;52.212;-1.010;2022-07-29T05:43:51;100971.92;;;16.14;64.54
62946;BME280;52164;52.212;-1.010;2022-07-29T05:46:17;100974.30;;;16.13;64.63
62946;BME280;52164;52.212;-1.010;2022-07-29T05:48:42;100977.69;;;16.13;64.75
62946;BME280;52164;52.212;-1.010;2022-07-29T05:51:07;100977.33;;;16.14;64.88
62946;BME280;52164;52.212;-1.010;2022-07-29T05:53:33;100975.84;;;16.16;64.93
62946;BME280;52164;52.212;-1.010;2022-07-29T05:56:03;100977.81;;;16.17;64.85
62946;BME280;52164;52.212;-1.010;2022-07-29T05:58:29;100980.98;;;16.22;65.07
62946;BME280;52164;52.212;-1.010;2022-07-29T06:00:54;100978.94;;;16.26;65.04
62946;BME280;52164;52.212;-1.010;2022-07-29T06:03:25;100981.60;;;16.28;65.04
62946;BME280;52164;52.212;-1.010;2022-07-29T06:05:50;100979.20;;;16.31;64.94
62946;BME280;52164;52.212;-1.010;2022-07-29T06:08:16;100977.90;;;16.34;65.10
62946;BME280;52164;52.212;-1.010;2022-07-29T06:10:42;100978.08;;;16.34;65.00
62946;BME280;52164;52.212;-1.010;2022-07-29T06:13:08;100975.41;;;16.33;64.96
62946;BME280;52164;52.212;-1.010;2022-07-29T06:15:33;100976.17;;;16.30;64.93
62946;BME280;52164;52.212;-1.010;2022-07-29T06:17:59;100983.06;;;16.27;65.07
62946;BME280;52164;52.212;-1.010;2022-07-29T06:20:25;100980.41;;;16.23;65.11
62946;BME280;52164;52.212;-1.010;2022-07-29T06:22:50;100978.28;;;16.21;65.38
62946;BME280;52164;52.212;-1.010;2022-07-29T06:25:16;100978.48;;;16.22;65.46
62946;BME280;52164;52.212;-1.010;2022-07-29T06:27:41;100976.77;;;16.26;65.46
62946;BME280;52164;52.212;-1.010;2022-07-29T06:30:07;100974.67;;;16.33;65.62
62946;BME280;52164;52.212;-1.010;2022-07-29T06:32:33;100975.09;;;16.41;65.51
62946;BME280;52164;52.212;-1.010;2022-07-29T06:34:59;100978.52;;;16.52;65.62
62946;BME280;52164;52.212;-1.010;2022-07-29T06:37:24;100977.63;;;16.61;65.41
62946;BME280;52164;52.212;-1.010;2022-07-29T06:39:50;100978.75;;;16.68;65.35
62946;BME280;52164;52.212;-1.010;2022-07-29T06:42:35;100980.90;;;16.80;65.14
62946;BME280;52164;52.212;-1.010;2022-07-29T06:45:00;100984.24;;;16.84;65.00
62946;BME280;52164;52.212;-1.010;2022-07-29T06:47:26;100980.39;;;16.89;64.84
62946;BME280;52164;52.212;-1.010;2022-07-29T06:49:51;100983.14;;;16.97;64.82
62946;BME280;52164;52.212;-1.010;2022-07-29T06:52:17;100985.89;;;17.05;64.81
62946;BME280;52164;52.212;-1.010;2022-07-29T06:54:43;100983.38;;;17.13;64.70
62946;BME280;52164;52.212;-1.010;2022-07-29T06:57:13;100985.75;;;17.21;64.51
62946;BME280;52164;52.212;-1.010;2022-07-29T06:59:39;100984.73;;;17.26;64.48
62946;BME280;52164;52.212;-1.010;2022-07-29T07:02:04;100986.05;;;17.32;64.19
62946;BME280;52164;52.212;-1.010;2022-07-29T07:04:30;100984.02;;;17.35;64.19
62946;BME280;52164;52.212;-1.010;2022-07-29T07:06:55;100983.91;;;17.40;64.12
62946;BME280;52164;52.212;-1.010;2022-07-29T07:09:21;100987.25;;;17.44;64.02
62946;BME280;52164;52.212;-1.010;2022-07-29T07:11:46;100983.23;;;17.47;64.04
62946;BME280;52164;52.212;-1.010;2022-07-29T07:14:12;100985.84;;;17.51;64.03
62946;BME280;52164;52.212;-1.010;2022-07-29T07:16:37;100978.49;;;17.57;64.06
62946;BME280;52164;52.212;-1.010;2022-07-29T07:19:03;100985.58;;;17.64;64.13
62946;BME280;52164;52.212;-1.010;2022-07-29T07:21:29;100990.31;;;17.70;63.98
62946;BME280;52164;52.212;-1.010;2022-07-29T07:23:55;100994.95;;;17.81;63.92
62946;BME280;52164;52.212;-1.010;2022-07-29T07:26:20;100996.31;;;17.93;63.71
62946;BME280;52164;52.212;-1.010;2022-07-29T07:28:46;100996.05;;;18.06;63.47
62946;BME280;52164;52.212;-1.010;2022-07-29T07:31:12;100998.13;;;18.18;63.05
62946;BME280;52164;52.212;-1.010;2022-07-29T07:33:38;100999.06;;;18.31;62.99
62946;BME280;52164;52.212;-1.010;2022-07-29T07:36:03;100993.10;;;18.46;62.84
62946;BME280;52164;52.212;-1.010;2022-07-29T07:38:29;100994.52;;;18.61;62.38
62946;BME280;52164;52.212;-1.010;2022-07-29T07:40:54;100998.13;;;18.75;62.16
62946;BME280;52164;52.212;-1.010;2022-07-29T07:43:20;100998.66;;;18.90;61.70
62946;BME280;52164;52.212;-1.010;2022-07-29T07:45:47;100994.64;;;18.99;61.26
62946;BME280;52164;52.212;-1.010;2022-07-29T07:48:12;100994.09;;;18.99;61.33
62946;BME280;52164;52.212;-1.010;2022-07-29T07:50:38;100993.14;;;19.01;61.46
62946;BME280;52164;52.212;-1.010;2022-07-29T07:53:03;100989.20;;;19.06;61.25
62946;BME280;52164;52.212;-1.010;2022-07-29T07:55:29;100988.25;;;19.14;61.03
62946;BME280;52164;52.212;-1.010;2022-07-29T07:57:54;100988.77;;;19.22;61.00
62946;BME280;52164;52.212;-1.010;2022-07-29T08:00:21;100990.29;;;19.26;60.86
62946;BME280;52164;52.212;-1.010;2022-07-29T08:02:47;100983.14;;;19.29;60.46
62946;BME280;52164;52.212;-1.010;2022-07-29T08:05:13;100983.93;;;19.33;60.04
62946;BME280;52164;52.212;-1.010;2022-07-29T08:07:44;100987.97;;;19.37;59.54
62946;BME280;52164;52.212;-1.010;2022-07-29T08:10:10;100989.49;;;19.47;59.52
62946;BME280;52164;52.212;-1.010;2022-07-29T08:12:36;100988.70;;;19.55;59.33
62946;BME280;52164;52.212;-1.010;2022-07-29T08:15:02;100989.89;;;19.64;58.70
62946;BME280;52164;52.212;-1.010;2022-07-29T08:17:28;100993.40;;;19.74;57.99
62946;BME280;52164;52.212;-1.010;2022-07-29T08:19:53;100992.90;;;19.80;56.99
62946;BME280;52164;52.212;-1.010;2022-07-29T08:22:19;100987.82;;;19.80;56.08
62946;BME280;52164;52.212;-1.010;2022-07-29T08:24:45;100992.44;;;19.83;55.46
62946;BME280;52164;52.212;-1.010;2022-07-29T08:27:18;100989.37;;;19.88;55.16
62946;BME280;52164;52.212;-1.010;2022-07-29T08:29:45;100987.04;;;19.93;55.23
62946;BME280;52164;52.212;-1.010;2022-07-29T08:32:10;100992.14;;;19.98;54.64
62946;BME280;52164;52.212;-1.010;2022-07-29T08:34:36;100994.56;;;20.02;54.30
62946;BME280;52164;52.212;-1.010;2022-07-29T08:37:01;100993.26;;;20.09;54.20
62946;BME280;52164;52.212;-1.010;2022-07-29T08:39:27;100994.65;;;20.11;53.95
62946;BME280;52164;52.212;-1.010;2022-07-29T08:41:52;100997.55;;;20.10;54.08
62946;BME280;52164;52.212;-1.010;2022-07-29T08:44:20;100995.40;;;20.10;54.49
62946;BME280;52164;52.212;-1.010;2022-07-29T08:46:48;100994.63;;;20.06;54.67
62946;BME280;52164;52.212;-1.010;2022-07-29T08:49:15;100991.88;;;20.01;54.65
62946;BME280;52164;52.212;-1.010;2022-07-29T08:51:41;100990.50;;;19.99;54.54
62946;BME280;52164;52.212;-1.010;2022-07-29T08:54:08;100996.89;;;20.03;54.49
62946;BME280;52164;52.212;-1.010;2022-07-29T08:56:34;100993.98;;;20.15;54.62
62946;BME280;52164;52.212;-1.010;2022-07-29T08:59:03;100988.45;;;20.29;54.66
62946;BME280;52164;52.212;-1.010;2022-07-29T09:01:32;100984.32;;;20.44;54.29
62946;BME280;52164;52.212;-1.010;2022-07-29T09:03:58;100982.30;;;20.56;54.22
62946;BME280;52164;52.212;-1.010;2022-07-29T09:06:28;100985.12;;;20.64;53.95
62946;BME280;52164;52.212;-1.010;2022-07-29T09:08:59;100988.05;;;20.68;53.76
62946;BME280;52164;52.212;-1.010;2022-07-29T09:11:25;100987.68;;;20.74;53.68
62946;BME280;52164;52.212;-1.010;2022-07-29T09:13:50;100987.50;;;20.79;53.59
62946;BME280;52164;52.212;-1.010;2022-07-29T09:16:16;100985.35;;;20.84;53.50
62946;BME280;52164;52.212;-1.010;2022-07-29T09:18:44;100985.98;;;20.86;53.43
62946;BME280;52164;52.212;-1.010;2022-07-29T09:21:12;100982.57;;;20.90;53.25
62946;BME280;52164;52.212;-1.010;2022-07-29T09:24:14;100983.60;;;20.91;52.88
62946;BME280;52164;52.212;-1.010;2022-07-29T09:26:42;100979.46;;;20.91;52.83
62946;BME280;52164;52.212;-1.010;2022-07-29T09:31:37;100971.98;;;20.98;52.35
62946;BME280;52164;52.212;-1.010;2022-07-29T09:34:04;100970.36;;;21.02;52.35
62946;BME280;52164;52.212;-1.010;2022-07-29T09:36:30;100967.20;;;21.04;52.26
62946;BME280;52164;52.212;-1.010;2022-07-29T09:38:58;100967.73;;;21.05;51.87
62946;BME280;52164;52.212;-1.010;2022-07-29T09:41:25;100968.66;;;21.04;51.39
62946;BME280;52164;52.212;-1.010;2022-07-29T09:43:55;100963.36;;;21.10;51.34
62946;BME280;52164;52.212;-1.010;2022-07-29T09:46:21;100966.65;;;21.19;51.20
62946;BME280;52164;52.212;-1.010;2022-07-29T09:49:08;100966.16;;;21.28;51.09
62946;BME280;52164;52.212;-1.010;2022-07-29T09:51:35;100962.90;;;21.37;51.03
62946;BME280;52164;52.212;-1.010;2022-07-29T09:54:01;100959.85;;;21.46;51.01
62946;BME280;52164;52.212;-1.010;2022-07-29T09:56:44;100964.68;;;21.54;50.84
62946;BME280;52164;52.212;-1.010;2022-07-29T09:59:10;100965.64;;;21.61;50.20
62946;BME280;52164;52.212;-1.010;2022-07-29T10:01:37;100965.59;;;21.73;50.26
62946;BME280;52164;52.212;-1.010;2022-07-29T10:04:03;100969.40;;;21.86;49.53
62946;BME280;52164;52.212;-1.010;2022-07-29T10:06:28;100972.30;;;22.00;49.53
62946;BME280;52164;52.212;-1.010;2022-07-29T10:08:54;100967.95;;;22.09;49.36
62946;BME280;52164;52.212;-1.010;2022-07-29T10:11:20;100966.17;;;22.08;49.05
62946;BME280;52164;52.212;-1.010;2022-07-29T10:13:47;100963.73;;;22.06;48.89
62946;BME280;52164;52.212;-1.010;2022-07-29T10:16:14;100964.52;;;22.09;48.77
62946;BME280;52164;52.212;-1.010;2022-07-29T10:18:42;100967.55;;;22.14;48.65
62946;BME280;52164;52.212;-1.010;2022-07-29T10:21:08;100964.28;;;22.28;48.59
62946;BME280;52164;52.212;-1.010;2022-07-29T10:23:35;100958.44;;;22.42;48.25
62946;BME280;52164;52.212;-1.010;2022-07-29T10:26:02;100956.02;;;22.52;47.98
62946;BME280;52164;52.212;-1.010;2022-07-29T10:28:30;100958.55;;;22.65;47.83
62946;BME280;52164;52.212;-1.010;2022-07-29T10:31:01;100959.25;;;22.78;47.62
62946;BME280;52164;52.212;-1.010;2022-07-29T10:33:41;100958.10;;;22.88;47.10
62946;BME280;52164;52.212;-1.010;2022-07-29T10:36:20;100958.74;;;22.98;46.22
62946;BME280;52164;52.212;-1.010;2022-07-29T10:41:58;100959.58;;;23.16;45.87
62946;BME280;52164;52.212;-1.010;2022-07-29T10:44:26;100959.87;;;23.30;45.27
62946;BME280;52164;52.212;-1.010;2022-07-29T10:46:52;100964.90;;;23.44;44.97
62946;BME280;52164;52.212;-1.010;2022-07-29T10:51:56;100957.97;;;23.67;44.08
62946;BME280;52164;52.212;-1.010;2022-07-29T10:54:42;100957.96;;;23.79;43.53
62946;BME280;52164;52.212;-1.010;2022-07-29T10:57:29;100960.23;;;23.93;43.06
62946;BME280;52164;52.212;-1.010;2022-07-29T11:02:42;100958.48;;;24.10;42.60
62946;BME280;52164;52.212;-1.010;2022-07-29T11:05:10;100959.44;;;24.13;41.57
62946;BME280;52164;52.212;-1.010;2022-07-29T11:07:38;100956.92;;;24.27;41.43
62946;BME280;52164;52.212;-1.010;2022-07-29T11:10:20;100954.23;;;24.29;40.83
62946;BME280;52164;52.212;-1.010;2022-07-29T11:12:47;100955.66;;;24.26;40.57
62946;BME280;52164;52.212;-1.010;2022-07-29T11:15:18;100948.76;;;24.30;40.58
62946;BME280;52164;52.212;-1.010;2022-07-29T11:18:05;100949.71;;;24.43;40.57
62946;BME280;52164;52.212;-1.010;2022-07-29T11:22:57;100954.75;;;24.77;39.59
62946;BME280;52164;52.212;-1.010;2022-07-29T11:25:23;100950.66;;;24.89;38.88
62946;BME280;52164;52.212;-1.010;2022-07-29T11:27:49;100944.80;;;25.00;38.66
62946;BME280;52164;52.212;-1.010;2022-07-29T11:30:16;100947.39;;;25.12;38.28
62946;BME280;52164;52.212;-1.010;2022-07-29T11:32:43;100948.34;;;25.19;38.37
62946;BME280;52164;52.212;-1.010;2022-07-29T11:37:39;100949.14;;;25.35;38.11
62946;BME280;52164;52.212;-1.010;2022-07-29T11:47:31;100937.02;;;25.95;37.97
62946;BME280;52164;52.212;-1.010;2022-07-29T11:49:58;100932.17;;;26.22;37.37
62946;BME280;52164;52.212;-1.010;2022-07-29T11:52:42;100935.64;;;26.50;36.72
62946;BME280;52164;52.212;-1.010;2022-07-29T11:55:19;100936.80;;;26.68;36.23
62946;BME280;52164;52.212;-1.010;2022-07-29T11:57:48;100930.08;;;26.79;36.00
62946;BME280;52164;52.212;-1.010;2022-07-29T12:00:22;100927.20;;;26.93;35.98
62946;BME280;52164;52.212;-1.010;2022-07-29T12:02:47;100924.00;;;27.06;35.42
62946;BME280;52164;52.212;-1.010;2022-07-29T12:05:13;100921.66;;;27.20;35.61
62946;BME280;52164;52.212;-1.010;2022-07-29T12:07:39;100920.55;;;27.38;35.14
62946;BME280;52164;52.212;-1.010;2022-07-29T12:10:06;100919.96;;;27.53;35.07
62946;BME280;52164;52.212;-1.010;2022-07-29T12:12:32;100920.27;;;27.63;34.43
62946;BME280;52164;52.212;-1.010;2022-07-29T12:15:10;100920.52;;;27.67;34.37
62946;BME280;52164;52.212;-1.010;2022-07-29T12:17:36;100919.58;;;27.79;34.23
62946;BME280;52164;52.212;-1.010;2022-07-29T12:20:03;100913.58;;;27.95;34.08
62946;BME280;52164;52.212;-1.010;2022-07-29T12:24:55;100897.27;;;28.28;33.62
62946;BME280;52164;52.212;-1.010;2022-07-29T12:27:25;100895.74;;;28.42;33.46
62946;BME280;52164;52.212;-1.010;2022-07-29T12:29:57;100895.36;;;28.48;33.21
62946;BME280;52164;52.212;-1.010;2022-07-29T12:32:34;100890.17;;;28.53;32.23
62946;BME280;52164;52.212;-1.010;2022-07-29T12:35:03;100889.95;;;28.52;32.50
62946;BME280;52164;52.212;-1.010;2022-07-29T12:37:30;100893.60;;;28.54;32.38
62946;BME280;52164;52.212;-1.010;2022-07-29T12:39:56;100893.77;;;28.55;32.45
62946;BME280;52164;52.212;-1.010;2022-07-29T12:42:21;100897.54;;;28.45;32.35
62946;BME280;52164;52.212;-1.010;2022-07-29T12:44:48;100891.40;;;28.33;32.77
62946;BME280;52164;52.212;-1.010;2022-07-29T12:47:15;100887.58;;;28.38;32.84
62946;BME280;52164;52.212;-1.010;2022-07-29T12:49:43;100886.58;;;28.42;32.90
62946;BME280;52164;52.212;-1.010;2022-07-29T12:52:30;100880.98;;;28.49;32.60
62946;BME280;52164;52.212;-1.010;2022-07-29T12:54:56;100875.80;;;28.65;32.81
62946;BME280;52164;52.212;-1.010;2022-07-29T12:57:23;100877.95;;;28.82;32.26
62946;BME280;52164;52.212;-1.010;2022-07-29T13:00:09;100880.81;;;29.06;32.08
62946;BME280;52164;52.212;-1.010;2022-07-29T13:02:37;100887.48;;;29.31;31.18
62946;BME280;52164;52.212;-1.010;2022-07-29T13:05:05;100887.66;;;29.41;31.35
62946;BME280;52164;52.212;-1.010;2022-07-29T13:07:32;100887.55;;;29.60;30.84
62946;BME280;52164;52.212;-1.010;2022-07-29T13:10:20;100886.27;;;29.81;30.65
62946;BME280;52164;52.212;-1.010;2022-07-29T13:13:08;100882.92;;;29.91;30.57
62946;BME280;52164;52.212;-1.010;2022-07-29T13:15:37;100889.15;;;29.73;30.49
62946;BME280;52164;52.212;-1.010;2022-07-29T13:18:04;100889.28;;;29.72;30.44
62946;BME280;52164;52.212;-1.010;2022-07-29T13:20:30;100893.02;;;29.78;30.05